Time;durP1;ratioP1;P1;durP2;ratioP2;P2;SDS_P1;SDS_P2;PMS_P1;PMS_P2;Temp;Humidity;BMP_temperature;BMP_pressure;BME280_temperature;BME280_humidity;BME280_pressure;Samples;Min_cycle;Max_cycle;Signal;HPM_P1;HPM_P2
2023/04/02 00:00:23;;;;;;;23.85;10.82;;;;;;;3.57;100.00;93202.25;5050357;28;20039;-69
2023/04/02 00:02:53;;;;;;;16.85;8.20;;;;;;;3.59;100.00;93207.28;5035110;28;20720;-68
2023/04/02 00:05:24;;;;;;;5.63;2.50;;;;;;;3.53;100.00;93201.47;5049394;28;20040;-67
2023/04/02 00:07:56;;;;;;;4.18;2.22;;;;;;;3.51;100.00;93209.22;5037178;28;20498;-68
2023/04/02 00:10:49;;;;;;;3.50;1.50;;;;;;;3.50;100.00;93206.88;5049264;28;20044;-68
2023/04/02 00:13:23;;;;;;;3.97;1.90;;;;;;;3.55;100.00;93207.28;5042502;28;20039;-68
2023/04/02 00:15:55;;;;;;;7.28;2.55;;;;;;;3.59;100.00;93210.78;5049740;28;20109;-67
2023/04/02 00:18:23;;;;;;;6.15;2.33;;;;;;;3.64;100.00;93204.16;5049218;28;20089;-69
2023/04/02 00:20:58;;;;;;;5.07;2.13;;;;;;;3.69;100.00;93203.03;5049249;28;20066;-68
2023/04/02 00:23:25;;;;;;;5.47;1.80;;;;;;;3.75;100.00;93207.66;5049208;28;20037;-68
2023/04/02 00:25:52;;;;;;;4.05;2.30;;;;;;;3.79;100.00;93199.53;5049667;28;20068;-68
2023/04/02 00:28:22;;;;;;;4.53;2.50;;;;;;;3.79;100.00;93203.00;5049252;28;20049;-68
2023/04/02 00:30:52;;;;;;;4.70;2.45;;;;;;;3.74;100.00;93208.84;5049544;28;20090;-68
2023/04/02 00:33:23;;;;;;;4.55;2.33;;;;;;;3.78;100.00;93208.81;5048921;28;20041;-69
2023/04/02 00:35:52;;;;;;;4.40;2.20;;;;;;;3.77;100.00;93207.28;5049843;28;20045;-68
2023/04/02 00:38:28;;;;;;;3.58;2.00;;;;;;;3.81;100.00;93218.91;5053681;28;20077;-68
2023/04/02 00:40:58;;;;;;;6.18;3.42;;;;;;;3.77;100.00;93223.56;5049621;28;20043;-68
2023/04/02 00:43:27;;;;;;;5.25;2.65;;;;;;;3.89;100.00;93206.88;5048638;28;20043;-69
2023/04/02 00:45:57;;;;;;;4.30;2.47;;;;;;;3.90;100.00;93215.78;5049281;28;20436;-68
2023/04/02 00:48:30;;;;;;;4.63;2.67;;;;;;;4.00;100.00;93209.56;5048673;28;20184;-68
2023/04/02 00:51:07;;;;;;;4.53;2.63;;;;;;;4.02;100.00;93209.94;5047880;28;20059;-69
2023/04/02 00:53:35;;;;;;;5.85;2.75;;;;;;;4.03;100.00;93208.78;5050775;28;20044;-69
2023/04/02 00:56:11;;;;;;;3.38;2.08;;;;;;;3.91;100.00;93214.63;5059092;28;20044;-69
2023/04/02 00:58:38;;;;;;;3.90;1.98;;;;;;;3.92;100.00;93208.78;5048207;28;20964;-68
2023/04/02 01:01:21;;;;;;;6.00;2.80;;;;;;;3.78;100.00;93203.38;5049018;28;20048;-68
2023/04/02 01:04:00;;;;;;;7.80;3.13;;;;;;;3.69;100.00;93206.50;5048415;28;20297;-68
2023/04/02 01:06:33;;;;;;;5.85;2.60;;;;;;;3.58;100.00;93211.16;5048625;28;20049;-69
2023/04/02 01:09:17;;;;;;;4.60;2.33;;;;;;;3.62;100.00;93209.22;5032043;28;20053;-68
2023/04/02 01:11:55;;;;;;;5.65;2.95;;;;;;;3.68;100.00;93215.81;5033887;28;20330;-69
2023/04/02 01:14:27;;;;;;;6.73;3.37;;;;;;;3.67;100.00;93216.97;5048514;28;20508;-69
2023/04/02 01:17:02;;;;;;;4.47;2.50;;;;;;;3.71;100.00;93209.59;5048897;28;20037;-67
2023/04/02 01:20:10;;;;;;;4.75;3.05;;;;;;;3.79;100.00;93207.66;5048266;28;21814;-67
2023/04/02 01:22:46;;;;;;;4.30;2.58;;;;;;;3.81;100.00;93205.34;5051254;28;20397;-67
2023/04/02 01:25:21;;;;;;;41.17;21.13;;;;;;;3.82;100.00;93206.88;5052422;28;20041;-66
2023/04/02 01:28:05;;;;;;;7.70;3.60;;;;;;;3.73;100.00;93207.28;5053083;28;20111;-66
2023/04/02 01:30:34;;;;;;;5.57;2.95;;;;;;;3.71;100.00;93212.31;5041651;28;20040;-67
2023/04/02 01:33:02;;;;;;;5.55;2.50;;;;;;;3.67;100.00;93213.50;5052751;28;20087;-67
2023/04/02 01:35:36;;;;;;;4.90;2.75;;;;;;;3.68;100.00;93215.03;5052316;28;20053;-66
2023/04/02 01:38:21;;;;;;;5.25;2.80;;;;;;;3.61;100.00;93215.81;5053291;28;20053;-66
2023/04/02 01:41:08;;;;;;;7.67;3.27;;;;;;;3.56;100.00;93224.31;5051959;28;20103;-66
2023/04/02 01:44:00;;;;;;;4.90;2.85;;;;;;;3.54;100.00;93230.16;5051899;28;20769;-66
2023/04/02 01:46:32;;;;;;;5.03;2.60;;;;;;;3.47;100.00;93218.53;5052034;28;20109;-67
2023/04/02 01:49:02;;;;;;;4.45;2.67;;;;;;;3.44;100.00;93222.81;5052600;28;20040;-67
2023/04/02 01:51:33;;;;;;;4.18;2.70;;;;;;;3.39;100.00;93223.19;5051811;28;20033;-67
2023/04/02 01:54:03;;;;;;;5.53;3.03;;;;;;;3.41;100.00;93220.84;5058326;28;20064;-67
2023/04/02 01:56:30;;;;;;;4.45;2.80;;;;;;;3.35;100.00;93227.81;5053839;28;20057;-68
2023/04/02 01:58:57;;;;;;;5.35;2.70;;;;;;;3.29;100.00;93218.53;5052432;28;20611;-67
2023/04/02 02:01:33;;;;;;;4.80;2.67;;;;;;;3.27;100.00;93228.97;5051822;28;20113;-67
2023/04/02 02:04:00;;;;;;;4.60;2.60;;;;;;;3.25;100.00;93225.88;5052589;28;20657;-67
2023/04/02 02:06:27;;;;;;;5.77;4.20;;;;;;;3.22;100.00;93224.72;5051859;28;20115;-68
2023/04/02 02:09:00;;;;;;;4.95;2.83;;;;;;;3.19;100.00;93230.91;5052233;28;20045;-68
2023/04/02 02:11:29;;;;;;;4.05;2.60;;;;;;;3.08;100.00;93225.47;5038540;28;20059;-67
2023/04/02 02:14:32;;;;;;;4.28;2.70;;;;;;;3.07;100.00;93225.84;5052065;28;20069;-67
2023/04/02 02:17:01;;;;;;;4.25;2.30;;;;;;;3.01;100.00;93225.44;5008424;28;20845;-67
2023/04/02 02:19:37;;;;;;;4.03;2.23;;;;;;;2.94;100.00;93225.44;5050371;28;20090;-67
2023/04/02 02:22:26;;;;;;;3.63;2.08;;;;;;;2.84;100.00;93226.97;5052177;28;20041;-68
2023/04/02 02:24:54;;;;;;;5.57;3.03;;;;;;;2.82;100.00;93232.00;5040872;28;21627;-67
2023/04/02 02:27:21;;;;;;;5.65;2.80;;;;;;;2.84;100.00;93234.28;5049962;28;20040;-67
2023/04/02 02:30:09;;;;;;;5.13;3.20;;;;;;;2.50;100.00;93245.41;5050763;28;20086;-67
2023/04/02 02:32:45;;;;;;;4.87;2.70;;;;;;;2.54;100.00;93249.69;5049422;28;20133;-68
2023/04/02 02:35:22;;;;;;;5.03;2.72;;;;;;;2.62;100.00;93242.38;5051457;28;20407;-68
2023/04/02 02:37:59;;;;;;;6.20;2.85;;;;;;;2.63;100.00;93246.63;5053064;28;20041;-68
2023/04/02 02:40:33;;;;;;;5.53;2.83;;;;;;;2.66;100.00;93248.59;5058148;28;20033;-68
2023/04/02 02:43:05;;;;;;;4.70;3.05;;;;;;;2.49;100.00;93250.03;5033183;28;20072;-68
2023/04/02 02:45:37;;;;;;;4.93;3.13;;;;;;;2.66;100.00;93254.00;5044176;28;20036;-68
2023/04/02 02:48:18;;;;;;;4.72;2.88;;;;;;;2.75;100.00;93259.06;5051459;28;20666;-68
2023/04/02 02:50:45;;;;;;;5.10;2.67;;;;;;;2.74;100.00;93252.09;5050658;28;20045;-67
2023/04/02 02:53:21;;;;;;;3.78;2.15;;;;;;;2.66;100.00;93253.22;5051112;28;20037;-67
2023/04/02 02:55:52;;;;;;;3.70;1.85;;;;;;;2.53;100.00;93253.53;5047086;28;20041;-68
2023/04/02 02:58:26;;;;;;;3.47;1.70;;;;;;;2.50;100.00;93262.44;5050936;28;20654;-67
2023/04/02 03:00:53;;;;;;;11.40;6.95;;;;;;;2.44;100.00;93260.47;5051269;28;20039;-68
2023/04/02 03:03:23;;;;;;;4.63;2.70;;;;;;;2.33;100.00;93255.00;5050657;28;20060;-68
2023/04/02 03:06:01;;;;;;;5.05;2.13;;;;;;;2.31;100.00;93265.44;5051255;28;20048;-68
2023/04/02 03:08:33;;;;;;;4.45;2.00;;;;;;;2.28;100.00;93264.28;5050818;28;20445;-67
2023/04/02 03:11:38;;;;;;;3.83;2.20;;;;;;;2.26;100.00;93273.94;5051103;28;20143;-67
2023/04/02 03:14:25;;;;;;;4.80;2.17;;;;;;;2.18;100.00;93270.41;5038417;28;20041;-67
2023/04/02 03:16:59;;;;;;;3.55;2.00;;;;;;;2.15;100.00;93271.94;5017620;28;20107;-67
2023/04/02 03:19:48;;;;;;;5.60;2.35;;;;;;;2.16;100.00;93278.13;5030186;28;20047;-67
2023/04/02 03:22:28;;;;;;;4.03;2.28;;;;;;;2.09;100.00;93276.13;5030714;28;20041;-67
2023/04/02 03:25:02;;;;;;;3.70;2.20;;;;;;;2.15;100.00;93282.75;5030686;28;20089;-67
2023/04/02 03:27:36;;;;;;;4.43;2.10;;;;;;;2.19;100.00;93280.84;5030415;28;20045;-68
2023/04/02 03:30:21;;;;;;;3.67;2.03;;;;;;;2.17;100.00;93290.50;5030677;28;20049;-67
2023/04/02 03:32:53;;;;;;;4.82;2.30;;;;;;;2.16;100.00;93289.72;5028513;28;20698;-67
2023/04/02 03:35:46;;;;;;;3.38;2.25;;;;;;;2.22;100.00;93294.78;5030252;28;20053;-67
2023/04/02 03:38:23;;;;;;;3.30;2.33;;;;;;;2.32;100.00;93307.63;5030430;28;20042;-67
2023/04/02 03:41:12;;;;;;;3.97;2.30;;;;;;;2.34;100.00;93294.47;5027112;28;20046;-67
2023/04/02 03:43:42;;;;;;;3.97;2.05;;;;;;;2.34;100.00;93292.53;5010202;28;20116;-67
2023/04/02 03:46:24;;;;;;;3.58;1.88;;;;;;;2.43;100.00;93296.84;5027626;28;20053;-64
2023/04/02 03:48:58;;;;;;;3.88;2.10;;;;;;;2.52;100.00;93300.00;5030606;28;20060;-68
2023/04/02 03:51:51;;;;;;;4.40;1.80;;;;;;;2.59;100.00;93294.59;5030006;28;20033;-68
2023/04/02 03:54:18;;;;;;;3.10;1.88;;;;;;;2.62;100.00;93299.25;5029774;28;20146;-68
2023/04/02 03:56:46;;;;;;;3.67;2.38;;;;;;;2.34;100.00;93294.47;5030285;28;20056;-68
2023/04/02 03:59:27;;;;;;;5.07;2.50;;;;;;;2.02;100.00;93307.81;5029274;28;20256;-67
2023/04/02 04:02:09;;;;;;;4.30;2.60;;;;;;;1.96;100.00;93305.44;5028913;28;20041;-67
2023/04/02 04:04:40;;;;;;;4.90;2.60;;;;;;;2.27;100.00;93308.72;5016199;28;20850;-68
2023/04/02 04:07:15;;;;;;;4.78;2.20;;;;;;;2.45;100.00;93308.06;5029953;28;20049;-67
2023/04/02 04:09:45;;;;;;;4.60;2.58;;;;;;;2.49;100.00;93323.16;5029070;28;20675;-68
2023/04/02 04:12:25;;;;;;;4.53;2.40;;;;;;;2.60;100.00;93320.53;5029691;28;20436;-68
2023/04/02 04:15:13;;;;;;;5.00;2.65;;;;;;;2.68;100.00;93324.81;5029987;28;20045;-68
2023/04/02 04:18:00;;;;;;;4.17;2.30;;;;;;;2.72;100.00;93325.63;5029120;28;20391;-67
2023/04/02 04:20:55;;;;;;;4.93;2.70;;;;;;;2.74;100.00;93328.72;5019336;28;20389;-68
2023/04/02 04:23:28;;;;;;;5.13;2.78;;;;;;;2.67;100.00;93333.34;5029096;28;20033;-68
2023/04/02 04:26:08;;;;;;;4.78;2.60;;;;;;;2.70;100.00;93332.59;5029981;28;20497;-68
2023/04/02 04:28:40;;;;;;;4.90;2.60;;;;;;;2.64;100.00;93337.59;5028757;28;20387;-68
2023/04/02 04:31:17;;;;;;;4.60;2.43;;;;;;;2.68;100.00;93340.31;5029663;28;20050;-68
2023/04/02 04:33:49;;;;;;;5.32;2.80;;;;;;;2.78;100.00;93339.59;5028662;28;20862;-67
2023/04/02 04:36:30;;;;;;;5.60;3.30;;;;;;;2.85;100.00;93346.97;5027695;28;20049;-67
2023/04/02 04:39:04;;;;;;;7.82;4.13;;;;;;;2.79;100.00;93350.03;5029861;28;20055;-68
2023/04/02 04:41:35;;;;;;;7.80;3.70;;;;;;;2.90;100.00;93352.81;5020209;28;20033;-67
2023/04/02 04:44:23;;;;;;;7.60;3.70;;;;;;;2.95;100.00;93351.66;5010606;28;20046;-67
2023/04/02 04:46:54;;;;;;;7.00;3.78;;;;;;;2.92;100.00;93353.19;5028620;28;20918;-67
2023/04/02 04:49:30;;;;;;;12.48;7.72;;;;;;;2.91;100.00;93351.63;5028836;28;20042;-69
2023/04/02 04:52:20;;;;;;;9.07;5.53;;;;;;;2.97;100.00;93360.94;5029671;28;20433;-67
2023/04/02 04:54:47;;;;;;;9.48;4.95;;;;;;;2.93;100.00;93364.81;5020734;28;20037;-67
2023/04/02 04:57:40;;;;;;;12.80;7.10;;;;;;;2.94;100.00;93372.56;5028892;28;20049;-67
2023/04/02 05:00:16;;;;;;;9.82;4.13;;;;;;;2.73;100.00;93367.81;5022945;28;20041;-68
2023/04/02 05:02:56;;;;;;;6.82;3.40;;;;;;;2.75;100.00;93378.28;5028369;28;20845;-68
2023/04/02 05:05:28;;;;;;;5.60;2.80;;;;;;;2.83;100.00;93371.72;5027443;28;20075;-68
2023/04/02 05:08:03;;;;;;;6.40;3.25;;;;;;;2.98;100.00;93376.06;5016125;28;20100;-67
2023/04/02 05:10:42;;;;;;;8.60;5.87;;;;;;;3.11;100.00;93371.09;5028711;28;20057;-68
2023/04/02 05:13:34;;;;;;;13.80;10.13;;;;;;;3.14;100.00;93372.25;5029376;28;20041;-68
2023/04/02 05:16:15;;;;;;;13.27;9.57;;;;;;;3.26;100.00;93376.56;5028078;28;21776;-67
2023/04/02 05:19:03;;;;;;;12.20;8.40;;;;;;;3.31;100.00;93376.97;5028241;28;21498;-68
2023/04/02 05:21:41;;;;;;;10.05;7.28;;;;;;;3.44;100.00;93388.25;5028241;28;20156;-67
2023/04/02 05:24:26;;;;;;;8.47;5.67;;;;;;;3.52;100.00;93373.56;5029086;28;20041;-67
2023/04/02 05:26:59;;;;;;;7.18;4.55;;;;;;;3.47;100.00;93384.00;5016850;28;20617;-68
2023/04/02 05:29:36;;;;;;;6.88;4.40;;;;;;;3.52;100.00;93381.69;5028245;28;20094;-67
2023/04/02 05:32:29;;;;;;;6.45;4.45;;;;;;;3.15;100.00;93388.13;5028930;28;20394;-69
2023/04/02 05:34:56;;;;;;;5.22;3.45;;;;;;;3.43;100.00;93383.22;5028032;28;20634;-68
2023/04/02 05:37:28;;;;;;;5.40;3.50;;;;;;;3.62;100.00;93393.72;5028257;28;20046;-68
2023/04/02 05:39:58;;;;;;;4.55;3.00;;;;;;;3.76;100.00;93388.34;5028969;28;20049;-68
2023/04/02 05:42:31;;;;;;;5.57;3.70;;;;;;;3.74;100.00;93384.44;5028161;28;20088;-68
2023/04/02 05:45:26;;;;;;;12.35;6.30;;;;;;;3.87;100.00;93393.78;5014940;28;20046;-68
2023/04/02 05:48:01;;;;;;;9.07;6.03;;;;;;;4.05;100.00;93393.81;5027748;28;22085;-68
2023/04/02 05:50:35;;;;;;;8.70;5.00;;;;;;;4.23;100.00;93393.03;5028195;28;20038;-68
2023/04/02 05:53:12;;;;;;;8.50;4.88;;;;;;;4.36;100.00;93394.97;5028689;28;20140;-68
2023/04/02 05:55:56;;;;;;;6.80;4.57;;;;;;;4.39;100.00;93401.59;5027789;28;20217;-68
2023/04/02 05:58:32;;;;;;;7.25;5.03;;;;;;;4.59;100.00;93407.41;5028260;28;20037;-68
2023/04/02 06:01:22;;;;;;;7.00;4.20;;;;;;;4.62;100.00;93412.03;5028843;28;20048;-68
2023/04/02 06:04:02;;;;;;;7.37;5.10;;;;;;;4.56;100.00;93413.59;5027552;28;20870;-68
2023/04/02 06:06:42;;;;;;;8.93;5.05;;;;;;;4.70;100.00;93412.81;5010970;28;20407;-69
2023/04/02 06:09:30;;;;;;;7.45;4.82;;;;;;;4.64;100.00;93401.56;5023192;28;20367;-69
2023/04/02 06:12:41;;;;;;;11.35;9.30;;;;;;;4.92;100.00;93414.31;5031131;28;20053;-69
2023/04/02 06:15:13;;;;;;;7.30;5.00;;;;;;;4.97;100.00;93418.56;4934575;29;20047;-68
2023/04/02 06:18:17;;;;;;;7.83;4.83;;;;;;;5.01;100.00;93422.09;5028918;28;20063;-68
2023/04/02 06:20:45;;;;;;;7.53;4.50;;;;;;;5.09;100.00;93420.09;5032639;28;20748;-68
2023/04/02 06:23:17;;;;;;;7.35;5.03;;;;;;;5.15;100.00;93422.06;5051415;28;20037;-68
2023/04/02 06:25:51;;;;;;;8.05;4.90;;;;;;;5.26;100.00;93427.44;5051910;28;20029;-68
2023/04/02 06:28:27;;;;;;;8.00;4.50;;;;;;;5.39;100.00;93433.22;5051528;28;20151;-68
2023/04/02 06:31:03;;;;;;;7.07;4.90;;;;;;;5.35;100.00;93424.31;5051830;28;20049;-68
2023/04/02 06:33:30;;;;;;;8.10;4.38;;;;;;;5.45;100.00;93434.38;5049904;28;20049;-68
2023/04/02 06:35:59;;;;;;;7.95;5.00;;;;;;;5.43;100.00;93442.16;5051681;28;20048;-68
2023/04/02 06:38:29;;;;;;;8.02;4.88;;;;;;;5.52;100.00;93434.34;5052213;28;20421;-69
2023/04/02 06:40:58;;;;;;;11.50;4.90;;;;;;;5.44;100.00;93448.41;5051659;28;20037;-68
2023/04/02 06:43:34;;;;;;;7.70;5.03;;;;;;;5.52;100.00;93449.91;5051237;28;20496;-68
2023/04/02 06:46:09;;;;;;;7.07;4.47;;;;;;;5.58;100.00;93451.81;5051536;28;20040;-69
2023/04/02 06:48:38;;;;;;;6.75;4.10;;;;;;;5.33;100.00;93451.94;5049189;28;20105;-68
2023/04/02 06:51:09;;;;;;;6.95;4.93;;;;;;;5.44;100.00;93457.31;5051561;28;20052;-68
2023/04/02 06:53:43;;;;;;;8.80;5.95;;;;;;;5.52;100.00;93452.63;5052162;28;20913;-68
2023/04/02 06:56:30;;;;;;;22.10;13.60;;;;;;;5.71;100.00;93462.28;5050678;28;20497;-68
2023/04/02 06:58:57;;;;;;;5.97;4.00;;;;;;;6.05;100.00;93456.31;5051399;28;20040;-68
2023/04/02 07:01:29;;;;;;;16.75;11.02;;;;;;;6.69;100.00;93458.59;5051099;28;20053;-68
2023/04/02 07:03:56;;;;;;;36.22;23.30;;;;;;;7.30;100.00;93446.34;5051091;28;20045;-68
2023/04/02 07:06:23;;;;;;;14.88;10.35;;;;;;;7.64;100.00;93456.53;5050697;28;20052;-68
2023/04/02 07:08:50;;;;;;;13.53;9.73;;;;;;;8.10;100.00;93453.22;5051300;28;20047;-68
2023/04/02 07:11:20;;;;;;;7.57;5.20;;;;;;;8.57;100.00;93460.78;5050601;28;20512;-68
2023/04/02 07:13:49;;;;;;;12.63;8.35;;;;;;;8.16;100.00;93454.31;5051335;28;20037;-69
2023/04/02 07:16:24;;;;;;;4.93;3.17;;;;;;;7.58;100.00;93462.41;5050524;28;20041;-68
2023/04/02 07:18:54;;;;;;;7.25;5.63;;;;;;;7.39;100.00;93465.78;5049952;28;20037;-67
2023/04/02 07:21:21;;;;;;;4.23;2.83;;;;;;;7.23;100.00;93460.09;5048588;28;20052;-68
2023/04/02 07:23:47;;;;;;;10.57;8.00;;;;;;;7.53;100.00;93468.34;5050830;28;20033;-68
2023/04/02 07:26:17;;;;;;;4.75;3.20;;;;;;;6.98;100.00;93461.88;5050176;28;20049;-68
2023/04/02 07:28:44;;;;;;;3.65;2.35;;;;;;;7.18;100.00;93478.47;5050489;28;20045;-67
2023/04/02 07:31:17;;;;;;;5.60;3.08;;;;;;;7.22;100.00;93483.09;5048705;28;20045;-66
2023/04/02 07:33:44;;;;;;;5.57;3.37;;;;;;;7.45;100.00;93477.03;5050675;28;20032;-67
2023/04/02 07:36:17;;;;;;;4.32;2.30;;;;;;;7.66;100.00;93473.28;5065443;28;20033;-66
2023/04/02 07:38:44;;;;;;;3.75;2.10;;;;;;;7.33;100.00;93484.53;5045470;28;20071;-67
2023/04/02 07:41:11;;;;;;;3.10;1.90;;;;;;;7.23;100.00;93488.16;5038888;28;20075;-66
2023/04/02 07:43:38;;;;;;;4.55;2.65;;;;;;;7.00;100.00;93486.00;5050563;28;20421;-67
2023/04/02 07:46:06;;;;;;;4.67;2.57;;;;;;;7.17;100.00;93487.03;5049085;28;20044;-67
2023/04/02 07:48:33;;;;;;;15.00;8.75;;;;;;;7.32;100.00;93485.69;5049804;28;20051;-67
2023/04/02 07:51:02;;;;;;;7.82;4.55;;;;;;;7.47;100.00;93485.59;5050597;28;20045;-67
2023/04/02 07:53:32;;;;;;;3.03;1.67;;;;;;;7.17;100.00;93492.50;5050864;28;20052;-67
2023/04/02 07:56:00;;;;;;;2.70;1.80;;;;;;;7.17;100.00;93495.22;5050667;28;20381;-67
2023/04/02 07:58:29;;;;;;;2.97;2.03;;;;;;;7.18;100.00;93503.00;5031829;28;20062;-67
2023/04/02 08:00:57;;;;;;;2.70;1.60;;;;;;;7.25;100.00;93506.84;5049896;28;20044;-71
2023/04/02 08:03:24;;;;;;;5.75;2.88;;;;;;;7.31;100.00;93506.00;5049366;28;20041;-67
2023/04/02 08:05:56;;;;;;;4.45;2.72;;;;;;;7.33;100.00;93505.59;5041171;28;20052;-68
2023/04/02 08:08:24;;;;;;;4.30;2.97;;;;;;;7.34;100.00;93515.34;5032303;28;20051;-68
2023/04/02 08:10:50;;;;;;;3.30;1.67;;;;;;;7.16;100.00;93516.28;5049816;28;20043;-68
2023/04/02 08:13:17;;;;;;;3.70;2.70;;;;;;;7.22;100.00;93524.03;5048976;28;20041;-68
2023/04/02 08:15:44;;;;;;;2.80;1.45;;;;;;;7.40;100.00;93521.91;5042836;28;20040;-68
2023/04/02 08:18:11;;;;;;;3.92;1.58;;;;;;;7.24;100.00;93516.22;5048925;28;20036;-67
2023/04/02 08:20:38;;;;;;;4.88;2.35;;;;;;;7.11;100.00;93516.72;5049275;28;20036;-68
2023/04/02 08:23:14;;;;;;;2.90;1.50;;;;;;;7.02;100.00;93532.00;5047336;28;20501;-68
2023/04/02 08:25:41;;;;;;;2.10;1.00;;;;;;;7.03;100.00;93528.88;5048545;28;20788;-68
2023/04/02 08:28:07;;;;;;;2.35;1.40;;;;;;;7.19;100.00;93534.56;5049144;28;20103;-69
2023/04/02 08:30:35;;;;;;;2.30;1.52;;;;;;;7.56;100.00;93530.31;5048379;28;20045;-68
2023/04/02 08:33:03;;;;;;;2.30;1.20;;;;;;;7.67;100.00;93535.69;5049285;28;20060;-68
2023/04/02 08:35:30;;;;;;;1.97;1.00;;;;;;;7.84;100.00;93528.47;5048957;28;20052;-68
2023/04/02 08:37:57;;;;;;;2.45;1.40;;;;;;;8.48;100.00;93535.16;5052081;28;20037;-68
2023/04/02 08:40:28;;;;;;;2.10;1.30;;;;;;;8.74;100.00;93533.59;5054309;28;20037;-69
2023/04/02 08:43:04;;;;;;;1.80;1.00;;;;;;;9.33;100.00;93534.28;5049135;28;20048;-69
2023/04/02 08:45:54;;;;;;;1.70;1.10;;;;;;;9.70;100.00;93535.19;5048730;28;20062;-69
2023/04/02 08:48:22;;;;;;;2.30;1.00;;;;;;;9.55;100.00;93535.44;5048562;28;20067;-69
2023/04/02 08:50:49;;;;;;;1.80;0.93;;;;;;;9.86;100.00;93538.03;5048940;28;20045;-69
2023/04/02 08:53:27;;;;;;;2.10;1.10;;;;;;;9.68;100.00;93538.38;5048549;28;20397;-68
2023/04/02 08:56:16;;;;;;;3.70;2.10;;;;;;;10.20;100.00;93540.53;5038476;28;20040;-68
2023/04/02 08:58:47;;;;;;;6.97;4.50;;;;;;;10.43;100.00;93536.16;5047897;28;20202;-68
2023/04/02 09:01:35;;;;;;;2.27;1.23;;;;;;;10.20;100.00;93542.47;5048617;28;20048;-68
2023/04/02 09:04:12;;;;;;;2.22;1.30;;;;;;;10.27;100.00;93541.56;5049377;28;20048;-69
2023/04/02 09:06:40;;;;;;;1.75;0.90;;;;;;;10.41;98.37;93546.78;5043797;28;20060;-68
2023/04/02 09:09:07;;;;;;;3.60;2.10;;;;;;;10.87;94.89;93545.03;5029384;28;20041;-68
2023/04/02 09:11:43;;;;;;;2.90;1.77;;;;;;;10.85;96.05;93558.41;5028391;28;20433;-68
2023/04/02 09:14:38;;;;;;;2.60;1.50;;;;;;;10.67;95.00;93560.78;5028527;28;20404;-66
2023/04/02 09:17:18;;;;;;;2.67;1.33;;;;;;;10.36;98.09;93561.78;5019346;28;20038;-67
2023/04/02 09:20:17;;;;;;;3.85;2.22;;;;;;;10.83;93.59;93565.53;5027973;28;20068;-67
2023/04/02 09:22:52;;;;;;;3.05;1.70;;;;;;;10.96;93.77;93566.38;5022620;28;20883;-68
2023/04/02 09:25:28;;;;;;;2.70;1.27;;;;;;;10.69;96.28;93567.38;5027467;28;20044;-68
2023/04/02 09:27:59;;;;;;;2.20;1.20;;;;;;;10.44;96.28;93567.09;5028596;28;20045;-68
2023/04/02 09:30:40;;;;;;;2.40;1.40;;;;;;;10.42;98.69;93577.72;5028552;28;20049;-67
2023/04/02 09:33:07;;;;;;;2.22;1.30;;;;;;;10.36;98.32;93575.50;5028947;28;20041;-68
2023/04/02 09:35:56;;;;;;;2.42;1.50;;;;;;;10.43;99.62;93576.56;5027524;28;21646;-67
2023/04/02 09:38:29;;;;;;;2.40;1.10;;;;;;;10.66;95.39;93579.19;5028167;28;20041;-67
2023/04/02 09:40:58;;;;;;;3.43;2.50;;;;;;;10.83;93.71;93582.00;5027522;28;20033;-67
2023/04/02 09:43:30;;;;;;;2.95;1.98;;;;;;;10.38;94.68;93584.06;5030953;28;20057;-68
2023/04/02 09:46:12;;;;;;;2.20;1.50;;;;;;;10.62;95.15;93588.69;5032825;28;20360;-67
2023/04/02 09:48:52;;;;;;;3.75;1.48;;;;;;;10.43;95.44;93585.53;5031751;28;20037;-67
2023/04/02 09:51:25;;;;;;;2.50;1.40;;;;;;;10.71;92.61;93599.88;5032028;28;20041;-66
2023/04/02 09:54:01;;;;;;;3.50;2.10;;;;;;;10.67;96.38;93604.69;5032401;28;20045;-67
2023/04/02 09:56:32;;;;;;;3.50;2.47;;;;;;;11.22;92.16;93602.31;5032162;28;20046;-66
2023/04/02 09:59:04;;;;;;;2.25;1.40;;;;;;;11.62;88.62;93607.66;5032332;28;20037;-67
2023/04/02 10:01:37;;;;;;;2.40;1.52;;;;;;;11.22;89.03;93608.56;5031733;28;20493;-67
2023/04/02 10:04:25;;;;;;;2.25;1.50;;;;;;;10.86;92.46;93603.09;5032581;28;20045;-67
2023/04/02 10:06:56;;;;;;;2.43;1.43;;;;;;;10.75;91.14;93615.06;5031120;28;20034;-68
2023/04/02 10:09:29;;;;;;;2.00;0.88;;;;;;;11.10;89.38;93621.00;5031981;28;20045;-67
2023/04/02 10:11:58;;;;;;;2.40;1.50;;;;;;;11.08;88.40;93623.38;5032291;28;20051;-67
2023/04/02 10:14:44;;;;;;;3.17;1.17;;;;;;;10.89;90.30;93622.25;5031332;28;20046;-65
2023/04/02 10:17:18;;;;;;;2.22;1.10;;;;;;;10.72;88.22;93618.66;5031374;28;20037;-66
2023/04/02 10:19:57;;;;;;;1.97;1.03;;;;;;;10.50;90.31;93632.06;5031965;28;20320;-67
2023/04/02 10:22:26;;;;;;;3.67;1.90;;;;;;;10.61;91.44;93631.84;5029377;28;20034;-67
2023/04/02 10:24:53;;;;;;;3.45;1.90;;;;;;;10.63;88.75;93640.41;5025045;28;20045;-68
2023/04/02 10:27:32;;;;;;;2.25;1.17;;;;;;;10.17;93.42;93634.59;5048735;28;20428;-66
2023/04/02 10:30:41;;;;;;;2.33;1.10;;;;;;;10.05;95.56;93639.91;5042211;28;20045;-66
2023/04/02 10:33:16;;;;;;;2.10;1.00;;;;;;;9.50;100.00;93640.03;5042150;28;21628;-66
2023/04/02 10:36:29;;;;;;;2.45;1.00;;;;;;;9.47;100.00;93643.59;5035479;28;20585;-61
2023/04/02 10:39:11;;;;;;;2.00;1.08;;;;;;;9.66;100.00;93649.56;5041811;28;20845;-68
2023/04/02 10:41:51;;;;;;;2.72;1.27;;;;;;;9.78;100.00;93640.78;5045190;28;20623;-65
2023/04/02 10:44:42;;;;;;;1.98;1.20;;;;;;;10.06;98.18;93642.25;5039292;28;20033;-64
2023/04/02 10:47:12;;;;;;;2.03;1.20;;;;;;;10.09;96.79;93641.38;5037596;28;20045;-67
2023/04/02 10:50:03;;;;;;;2.20;1.10;;;;;;;10.29;97.31;93644.16;5032258;28;20666;-61
2023/04/02 10:52:38;;;;;;;3.40;2.10;;;;;;;9.92;97.91;93650.69;5024028;28;21320;-65
2023/04/02 10:55:18;;;;;;;2.10;1.20;;;;;;;10.04;96.36;93650.13;5019618;28;20064;-64
2023/04/02 10:57:46;;;;;;;2.78;1.70;;;;;;;10.13;96.51;93652.31;5030791;28;20523;-63
2023/04/02 11:00:27;;;;;;;2.10;1.30;;;;;;;10.08;94.16;93650.81;5022016;28;20042;-66
2023/04/02 11:03:06;;;;;;;2.17;1.10;;;;;;;10.58;91.00;93655.41;5021441;28;21190;-66
2023/04/02 11:05:35;;;;;;;3.00;1.40;;;;;;;10.24;93.11;93658.38;5023560;28;20094;-62
2023/04/02 11:08:10;;;;;;;2.10;1.15;;;;;;;10.76;87.96;93659.75;5023897;28;20045;-63
2023/04/02 11:10:43;;;;;;;2.75;1.27;;;;;;;10.84;87.83;93660.38;5025853;28;20195;-65
2023/04/02 11:13:19;;;;;;;2.60;1.50;;;;;;;11.52;83.55;93659.69;5024039;28;20467;-65
2023/04/02 11:15:46;;;;;;;2.67;1.40;;;;;;;11.71;79.47;93662.78;5036470;28;20061;-63
2023/04/02 11:18:35;;;;;;;5.82;2.67;;;;;;;12.57;79.11;93658.66;5031429;28;20049;-64
2023/04/02 11:21:07;;;;;;;2.70;1.33;;;;;;;13.15;77.51;93651.56;5042987;28;20098;-62
2023/04/02 11:23:55;;;;;;;5.85;3.25;;;;;;;13.88;71.18;93656.47;5047692;28;20560;-64
2023/04/02 11:26:46;;;;;;;2.30;1.33;;;;;;;12.92;73.20;93661.66;5044884;28;20037;-61
2023/04/02 11:29:14;;;;;;;3.85;1.80;;;;;;;13.85;71.44;93657.34;5044457;28;20507;-67
2023/04/02 11:31:43;;;;;;;2.50;1.45;;;;;;;13.58;72.77;93659.34;5045384;28;20089;-66
2023/04/02 11:34:40;;;;;;;4.63;1.60;;;;;;;12.65;78.05;93661.25;5041005;28;20081;-65
2023/04/02 11:37:27;;;;;;;2.65;1.60;;;;;;;13.27;75.08;93664.59;5044409;28;20033;-67
2023/04/02 11:39:59;;;;;;;3.53;1.70;;;;;;;13.42;71.95;93662.22;5040200;28;21807;-61
2023/04/02 11:42:26;;;;;;;2.78;1.77;;;;;;;13.23;72.22;93668.66;5038517;28;20523;-66
2023/04/02 11:44:55;;;;;;;3.63;2.05;;;;;;;13.22;75.78;93669.88;5039929;28;20045;-63
2023/04/02 11:47:24;;;;;;;3.25;1.98;;;;;;;13.87;69.94;93672.25;5040823;28;20067;-63
2023/04/02 11:49:55;;;;;;;3.70;2.30;;;;;;;13.37;72.38;93673.78;5041337;28;20417;-65
2023/04/02 11:52:28;;;;;;;3.10;1.80;;;;;;;13.68;72.12;93670.47;5040364;28;21452;-64
2023/04/02 11:55:15;;;;;;;4.15;2.15;;;;;;;13.77;69.57;93673.34;5044216;28;20091;-65
2023/04/02 11:57:54;;;;;;;2.30;1.20;;;;;;;12.76;75.23;93670.75;5034594;28;20714;-61
2023/04/02 12:00:51;;;;;;;3.00;1.80;;;;;;;12.58;75.60;93673.22;5041306;28;20373;-67
2023/04/02 12:03:51;;;;;;;2.25;1.35;;;;;;;12.67;71.93;93667.84;5042102;28;20033;-62
2023/04/02 12:06:28;;;;;;;2.00;1.10;;;;;;;13.03;70.66;93674.34;5041667;28;20080;-63
2023/04/02 12:09:17;;;;;;;2.00;1.10;;;;;;;13.84;68.63;93677.88;5037303;28;20122;-58
2023/04/02 12:11:46;;;;;;;2.00;1.23;;;;;;;12.90;70.07;93679.84;5034299;28;20412;-66